岡山グライダークラブ活動状況掲示板あなたは無料カウンター人目の訪問者です

岡山グライダークラブ
岡山市浦安南町639-1 岡南飛行場
 使用機:シャイベ式 SF25C型 ファルケ   JA2330
      ヴァレンティン式17E型 タイフーン  JA2342
 練習日:毎日曜日  クラブルーム:電話 086-265-1810
この掲示板は岡山グライダークラブの活動状況をお知らせする掲示板です。
!!!この掲示板は投稿規制をしています。!!!
クラブ関連各種情報は 岡山グライダークラブクラブルーム      を       .
  ブリーフイング情報は  岡山グライダークラブブリーフィングルーム  をご覧下さい。 .
※写真はクリックすると拡大して見ることが出来ます。
岡南飛行場へのアクセス等は 岡南飛行場管理事務所 をご覧ください。
クラブの ホームページ ができました。

 
03月15日
by OGC at 2020/3/15(日) 20:18:04 No.20200315201220  削除コメント
1024 x 768 x 65,337バイト
No.1

03月15日
本日の参加者
  会員      15名
  その他      1名


@本日の様子


METAR
RJBK 150000Z 24004KT 200V270 30KM FEW025CU 06/01 Q1010 A2984
RJOB 150000Z 23008KT 9999 FEW020 06/00 Q1009
RJOT 150000Z 25013KT 210V270 9999 FEW030 09/M00 Q1009
RJOA 150000Z 27007KT 9999 FEW020 SCT035 05/01 Q1009
TAF
RJOB 142309Z 1500/1606 26012KT 9999 FEW025 SCT045
     TEMPO 1509/1512 4000 -TSRA BR FEW008 SCT015 FEW020CB BKN025
     TEMPO 1518/1600 3000 -SHSN
     BECMG 1600/1603 35012KT
RJOT 142313Z 1500/1606 25016KT 9999 FEW025 SCT050
     TEMPO 1503/1508 26020G30KT
     TEMPO 1509/1512 4000 -TSRA BR FEW008 SCT015 FEW020CB BKN025
     TEMPO 1518/1600 27022G33KT
     BECMG 1603/1606 32012KT
RJOA 142310Z 1500/1606 27013KT 9999 FEW025 SCT045
     TEMPO 1509/1512 4000 -TSRA BR FEW008 SCT015 BKN025 FEW025CB
     TEMPO 1518/1600 2000 -SHSN FEW003 BKN008 BKN015
     BECMG 1521/1600 33015KT


午前中は風が強く、15時頃から雨が降ったり止んだりの微妙な天気で、一時ファルケを格納庫に格納し待機しました。
上空ではよく上がったみたいで、みんな、滑空時間を延ばしていました。

解散    18:20

1番機  10:45離陸 撤収機  18:10着陸 

SF25C JA2330 ファルケ     09Flt.4h05min  
17E   JA2342 タイフーン    00Flt.0h00min  
合計                    09Flt.4h05min

    << 戻る || ホームページ || 最新の掲示板へ